KMTV

Blue Ridge Airport

Martinsville, Virginia, USA
METAR KMTV 200515Z AUTO 00000KT 10SM OVC080 25/20 A2997 RMK AO2 T02500200
Observed Flight Rules
Jun-20 @ 05:15 UTC (23 minutes ago) Visual Flight Rules
Visibility Clouds
10 miles
  • Overcast at 8,000' AGL
Temperatures Readings
Current 25°C / 77°F
Dewpoint 20°C / 68°F
Humidity 74%
Altimeter 29.97" Hg
Pressure 1015 hPa
Elevation 287
METAR KMTV 200515Z AUTO 00000KT 10SM OVC080 25/20 A2997 RMK AO2 T02500200
Observed Flight Rules
Jun-20 @ 05:15 UTC
(23 minutes ago)
VFR
Clouds
  • Overcast at 8,000' AGL
Temperature Dewpoint
25°C / 77°F 20°C / 68°F
Humidity Altimeter Pressure
74% 29.97" Hg 1015 hPa